sensor_id;sensor_type;location;lat;lon;timestamp;temperature;humidity
39919;DHT22;25589;51.552;13.424;2022-09-19T00:01:47;10.30;99.90
39919;DHT22;25589;51.552;13.424;2022-09-19T00:04:15;9.90;99.90
39919;DHT22;25589;51.552;13.424;2022-09-19T00:06:43;9.80;99.90
39919;DHT22;25589;51.552;13.424;2022-09-19T00:09:11;9.80;99.90
39919;DHT22;25589;51.552;13.424;2022-09-19T00:11:39;10.50;99.90
39919;DHT22;25589;51.552;13.424;2022-09-19T00:14:05;9.80;99.90
39919;DHT22;25589;51.552;13.424;2022-09-19T00:16:36;9.90;99.90
39919;DHT22;25589;51.552;13.424;2022-09-19T00:19:05;10.20;99.90
39919;DHT22;25589;51.552;13.424;2022-09-19T00:21:36;10.20;99.90
39919;DHT22;25589;51.552;13.424;2022-09-19T00:24:02;9.40;99.90
39919;DHT22;25589;51.552;13.424;2022-09-19T00:26:46;8.80;99.90
39919;DHT22;25589;51.552;13.424;2022-09-19T00:29:14;10.60;99.90
39919;DHT22;25589;51.552;13.424;2022-09-19T00:31:46;9.90;99.90
39919;DHT22;25589;51.552;13.424;2022-09-19T00:34:13;9.90;99.90
39919;DHT22;25589;51.552;13.424;2022-09-19T00:36:39;9.80;99.90
39919;DHT22;25589;51.552;13.424;2022-09-19T00:39:06;9.80;99.90
39919;DHT22;25589;51.552;13.424;2022-09-19T00:41:33;9.90;99.90
39919;DHT22;25589;51.552;13.424;2022-09-19T00:44:03;9.90;99.90
39919;DHT22;25589;51.552;13.424;2022-09-19T00:46:33;10.00;99.90
39919;DHT22;25589;51.552;13.424;2022-09-19T00:49:02;9.90;99.90
39919;DHT22;25589;51.552;13.424;2022-09-19T00:54:08;9.40;99.90
39919;DHT22;25589;51.552;13.424;2022-09-19T00:56:42;9.80;99.90
39919;DHT22;25589;51.552;13.424;2022-09-19T00:59:08;9.90;99.90
39919;DHT22;25589;51.552;13.424;2022-09-19T01:01:34;10.00;99.90
39919;DHT22;25589;51.552;13.424;2022-09-19T01:04:00;10.80;99.90
39919;DHT22;25589;51.552;13.424;2022-09-19T01:07:19;10.00;99.90
39919;DHT22;25589;51.552;13.424;2022-09-19T01:09:46;10.10;99.90
39919;DHT22;25589;51.552;13.424;2022-09-19T01:12:29;10.10;99.90
39919;DHT22;25589;51.552;13.424;2022-09-19T01:17:58;9.70;99.90
39919;DHT22;25589;51.552;13.424;2022-09-19T01:20:47;10.40;99.90
39919;DHT22;25589;51.552;13.424;2022-09-19T01:23:44;10.10;99.90
39919;DHT22;25589;51.552;13.424;2022-09-19T01:26:33;10.10;99.90
39919;DHT22;25589;51.552;13.424;2022-09-19T01:29:12;10.20;99.90
39919;DHT22;25589;51.552;13.424;2022-09-19T01:34:14;11.10;99.90
39919;DHT22;25589;51.552;13.424;2022-09-19T01:36:56;10.10;99.90
39919;DHT22;25589;51.552;13.424;2022-09-19T01:39:29;10.90;99.90
39919;DHT22;25589;51.552;13.424;2022-09-19T01:41:57;10.20;99.90
39919;DHT22;25589;51.552;13.424;2022-09-19T01:44:26;10.30;99.90
39919;DHT22;25589;51.552;13.424;2022-09-19T01:47:04;10.80;99.90
39919;DHT22;25589;51.552;13.424;2022-09-19T02:00:21;10.20;99.90
39919;DHT22;25589;51.552;13.424;2022-09-19T02:05:36;10.20;99.90
39919;DHT22;25589;51.552;13.424;2022-09-19T02:08:11;10.10;99.90
39919;DHT22;25589;51.552;13.424;2022-09-19T02:10:49;10.10;99.90
39919;DHT22;25589;51.552;13.424;2022-09-19T02:13:24;10.10;99.90
39919;DHT22;25589;51.552;13.424;2022-09-19T02:16:13;10.30;99.90
39919;DHT22;25589;51.552;13.424;2022-09-19T02:18:47;10.50;99.90
39919;DHT22;25589;51.552;13.424;2022-09-19T02:23:49;9.80;99.90
39919;DHT22;25589;51.552;13.424;2022-09-19T02:26:21;10.30;99.90
39919;DHT22;25589;51.552;13.424;2022-09-19T02:28:55;10.20;99.90
39919;DHT22;25589;51.552;13.424;2022-09-19T02:31:23;10.50;99.90
39919;DHT22;25589;51.552;13.424;2022-09-19T02:33:55;10.20;99.90
39919;DHT22;25589;51.552;13.424;2022-09-19T02:37:00;9.60;99.90
39919;DHT22;25589;51.552;13.424;2022-09-19T02:39:43;10.30;99.90
39919;DHT22;25589;51.552;13.424;2022-09-19T02:45:27;11.10;99.90
39919;DHT22;25589;51.552;13.424;2022-09-19T02:51:27;10.90;99.90
39919;DHT22;25589;51.552;13.424;2022-09-19T02:54:06;10.30;99.90
39919;DHT22;25589;51.552;13.424;2022-09-19T02:56:34;10.30;99.90
39919;DHT22;25589;51.552;13.424;2022-09-19T02:59:04;9.80;99.90
39919;DHT22;25589;51.552;13.424;2022-09-19T03:01:48;10.30;99.90
39919;DHT22;25589;51.552;13.424;2022-09-19T03:04:18;10.30;99.90
39919;DHT22;25589;51.552;13.424;2022-09-19T03:06:56;9.70;99.90
39919;DHT22;25589;51.552;13.424;2022-09-19T03:09:25;9.40;99.90
39919;DHT22;25589;51.552;13.424;2022-09-19T03:14:48;10.20;99.90
39919;DHT22;25589;51.552;13.424;2022-09-19T03:17:18;10.20;99.90
39919;DHT22;25589;51.552;13.424;2022-09-19T03:19:47;10.10;99.90
39919;DHT22;25589;51.552;13.424;2022-09-19T03:22:14;10.10;99.90
39919;DHT22;25589;51.552;13.424;2022-09-19T03:24:41;10.80;99.90
39919;DHT22;25589;51.552;13.424;2022-09-19T03:27:07;10.00;99.90
39919;DHT22;25589;51.552;13.424;2022-09-19T03:29:36;10.20;99.90
39919;DHT22;25589;51.552;13.424;2022-09-19T03:32:03;10.60;99.90
39919;DHT22;25589;51.552;13.424;2022-09-19T03:34:31;10.30;99.90
39919;DHT22;25589;51.552;13.424;2022-09-19T03:37:00;10.50;99.90
39919;DHT22;25589;51.552;13.424;2022-09-19T03:39:28;9.50;99.90
39919;DHT22;25589;51.552;13.424;2022-09-19T03:41:54;10.50;99.90
39919;DHT22;25589;51.552;13.424;2022-09-19T03:46:48;10.10;99.90
39919;DHT22;25589;51.552;13.424;2022-09-19T03:49:14;10.20;99.90
39919;DHT22;25589;51.552;13.424;2022-09-19T03:51:41;10.20;99.90
39919;DHT22;25589;51.552;13.424;2022-09-19T03:54:09;10.20;99.90
39919;DHT22;25589;51.552;13.424;2022-09-19T03:56:40;10.40;99.90
39919;DHT22;25589;51.552;13.424;2022-09-19T03:59:07;10.40;99.90
39919;DHT22;25589;51.552;13.424;2022-09-19T04:01:36;11.00;99.90
39919;DHT22;25589;51.552;13.424;2022-09-19T04:04:02;10.40;99.90
39919;DHT22;25589;51.552;13.424;2022-09-19T04:06:28;10.20;99.90
39919;DHT22;25589;51.552;13.424;2022-09-19T04:08:55;10.10;99.90
39919;DHT22;25589;51.552;13.424;2022-09-19T04:11:21;10.40;99.90
39919;DHT22;25589;51.552;13.424;2022-09-19T04:13:48;10.40;99.90
39919;DHT22;25589;51.552;13.424;2022-09-19T04:16:16;10.70;99.90
39919;DHT22;25589;51.552;13.424;2022-09-19T04:18:45;10.50;99.90
39919;DHT22;25589;51.552;13.424;2022-09-19T04:21:33;10.40;99.90
39919;DHT22;25589;51.552;13.424;2022-09-19T04:24:21;10.80;99.90
39919;DHT22;25589;51.552;13.424;2022-09-19T04:27:16;10.30;99.90
39919;DHT22;25589;51.552;13.424;2022-09-19T04:29:42;10.50;99.90
39919;DHT22;25589;51.552;13.424;2022-09-19T04:32:08;10.90;99.90
39919;DHT22;25589;51.552;13.424;2022-09-19T04:34:34;10.50;99.90
39919;DHT22;25589;51.552;13.424;2022-09-19T04:37:00;10.60;99.90
39919;DHT22;25589;51.552;13.424;2022-09-19T04:39:29;10.60;99.90
39919;DHT22;25589;51.552;13.424;2022-09-19T04:41:58;10.00;99.90
39919;DHT22;25589;51.552;13.424;2022-09-19T04:44:27;10.60;99.90
39919;DHT22;25589;51.552;13.424;2022-09-19T04:47:05;10.60;99.90
39919;DHT22;25589;51.552;13.424;2022-09-19T04:49:31;10.20;99.90
39919;DHT22;25589;51.552;13.424;2022-09-19T04:52:11;10.80;99.90
39919;DHT22;25589;51.552;13.424;2022-09-19T04:54:43;10.60;99.90
39919;DHT22;25589;51.552;13.424;2022-09-19T04:57:10;11.40;99.90
39919;DHT22;25589;51.552;13.424;2022-09-19T04:59:40;11.00;99.90
39919;DHT22;25589;51.552;13.424;2022-09-19T05:02:05;10.60;99.90
39919;DHT22;25589;51.552;13.424;2022-09-19T05:04:35;10.70;99.90
39919;DHT22;25589;51.552;13.424;2022-09-19T05:07:01;10.80;99.90
39919;DHT22;25589;51.552;13.424;2022-09-19T05:09:27;10.60;99.90
39919;DHT22;25589;51.552;13.424;2022-09-19T05:12:05;9.90;99.90
39919;DHT22;25589;51.552;13.424;2022-09-19T05:14:37;10.40;99.90
39919;DHT22;25589;51.552;13.424;2022-09-19T05:17:03;10.30;99.90
39919;DHT22;25589;51.552;13.424;2022-09-19T05:19:29;10.90;99.90
39919;DHT22;25589;51.552;13.424;2022-09-19T05:21:56;10.70;99.90
39919;DHT22;25589;51.552;13.424;2022-09-19T05:24:22;10.60;99.90
39919;DHT22;25589;51.552;13.424;2022-09-19T05:26:49;11.40;99.90
39919;DHT22;25589;51.552;13.424;2022-09-19T05:32:02;10.70;99.90
39919;DHT22;25589;51.552;13.424;2022-09-19T05:34:46;10.60;99.90
39919;DHT22;25589;51.552;13.424;2022-09-19T05:37:30;10.70;99.90
39919;DHT22;25589;51.552;13.424;2022-09-19T05:40:30;10.90;99.90
39919;DHT22;25589;51.552;13.424;2022-09-19T05:43:09;10.20;99.90
39919;DHT22;25589;51.552;13.424;2022-09-19T05:45:34;10.80;99.90
39919;DHT22;25589;51.552;13.424;2022-09-19T05:48:05;10.60;99.90
39919;DHT22;25589;51.552;13.424;2022-09-19T05:50:32;11.30;99.90
39919;DHT22;25589;51.552;13.424;2022-09-19T05:55:44;11.70;99.90
39919;DHT22;25589;51.552;13.424;2022-09-19T05:58:36;10.90;99.90
39919;DHT22;25589;51.552;13.424;2022-09-19T06:01:07;10.90;99.90
39919;DHT22;25589;51.552;13.424;2022-09-19T06:03:33;10.90;99.90
39919;DHT22;25589;51.552;13.424;2022-09-19T06:08:27;11.00;99.90
39919;DHT22;25589;51.552;13.424;2022-09-19T06:10:53;11.20;99.90
39919;DHT22;25589;51.552;13.424;2022-09-19T06:13:23;11.20;99.90
39919;DHT22;25589;51.552;13.424;2022-09-19T06:15:49;11.00;99.90
39919;DHT22;25589;51.552;13.424;2022-09-19T06:18:34;11.00;99.90
39919;DHT22;25589;51.552;13.424;2022-09-19T06:21:05;11.00;99.90
39919;DHT22;25589;51.552;13.424;2022-09-19T06:25:59;10.90;99.90
39919;DHT22;25589;51.552;13.424;2022-09-19T06:28:24;10.90;99.90
39919;DHT22;25589;51.552;13.424;2022-09-19T06:31:04;10.90;99.90
39919;DHT22;25589;51.552;13.424;2022-09-19T06:33:37;10.90;99.90
39919;DHT22;25589;51.552;13.424;2022-09-19T06:36:12;11.00;99.90
39919;DHT22;25589;51.552;13.424;2022-09-19T06:38:41;11.00;99.90
39919;DHT22;25589;51.552;13.424;2022-09-19T06:41:32;11.00;99.90
39919;DHT22;25589;51.552;13.424;2022-09-19T06:44:27;11.30;99.90
39919;DHT22;25589;51.552;13.424;2022-09-19T06:47:24;11.50;99.90
39919;DHT22;25589;51.552;13.424;2022-09-19T06:50:06;11.80;99.90
39919;DHT22;25589;51.552;13.424;2022-09-19T06:52:35;11.10;99.90
39919;DHT22;25589;51.552;13.424;2022-09-19T06:55:03;11.10;99.90
39919;DHT22;25589;51.552;13.424;2022-09-19T06:57:29;12.00;99.90
39919;DHT22;25589;51.552;13.424;2022-09-19T06:59:55;11.20;99.90
39919;DHT22;25589;51.552;13.424;2022-09-19T07:02:21;11.20;99.90
39919;DHT22;25589;51.552;13.424;2022-09-19T07:04:48;11.20;99.90
39919;DHT22;25589;51.552;13.424;2022-09-19T07:07:22;11.20;99.90
39919;DHT22;25589;51.552;13.424;2022-09-19T07:09:52;11.30;99.90
39919;DHT22;25589;51.552;13.424;2022-09-19T07:12:18;11.20;99.90
39919;DHT22;25589;51.552;13.424;2022-09-19T07:14:45;11.10;99.90
39919;DHT22;25589;51.552;13.424;2022-09-19T07:17:11;11.20;99.90
39919;DHT22;25589;51.552;13.424;2022-09-19T07:19:41;11.20;99.90
39919;DHT22;25589;51.552;13.424;2022-09-19T07:22:26;11.20;99.90
39919;DHT22;25589;51.552;13.424;2022-09-19T07:25:21;11.20;99.90
39919;DHT22;25589;51.552;13.424;2022-09-19T07:27:56;11.50;99.90
39919;DHT22;25589;51.552;13.424;2022-09-19T07:30:23;11.30;99.90
39919;DHT22;25589;51.552;13.424;2022-09-19T07:32:48;11.50;99.90
39919;DHT22;25589;51.552;13.424;2022-09-19T07:35:14;11.90;99.90
39919;DHT22;25589;51.552;13.424;2022-09-19T07:37:48;11.20;99.90
39919;DHT22;25589;51.552;13.424;2022-09-19T07:40:41;11.20;99.90
39919;DHT22;25589;51.552;13.424;2022-09-19T07:43:19;11.20;99.90
39919;DHT22;25589;51.552;13.424;2022-09-19T07:45:52;11.20;99.90
39919;DHT22;25589;51.552;13.424;2022-09-19T07:48:37;11.20;99.90
39919;DHT22;25589;51.552;13.424;2022-09-19T07:51:23;11.30;99.90
39919;DHT22;25589;51.552;13.424;2022-09-19T07:53:49;11.70;99.90
39919;DHT22;25589;51.552;13.424;2022-09-19T07:56:16;10.60;99.90
39919;DHT22;25589;51.552;13.424;2022-09-19T07:58:42;12.40;99.90
39919;DHT22;25589;51.552;13.424;2022-09-19T08:01:09;11.20;99.90
39919;DHT22;25589;51.552;13.424;2022-09-19T08:03:53;11.10;99.90
39919;DHT22;25589;51.552;13.424;2022-09-19T08:06:26;11.20;99.90
39919;DHT22;25589;51.552;13.424;2022-09-19T08:08:57;11.10;99.90
39919;DHT22;25589;51.552;13.424;2022-09-19T08:11:43;11.40;99.90
39919;DHT22;25589;51.552;13.424;2022-09-19T08:14:10;11.20;99.90
39919;DHT22;25589;51.552;13.424;2022-09-19T08:16:37;11.40;99.90
39919;DHT22;25589;51.552;13.424;2022-09-19T08:19:03;10.90;99.90
39919;DHT22;25589;51.552;13.424;2022-09-19T08:21:31;11.40;99.90
39919;DHT22;25589;51.552;13.424;2022-09-19T08:23:57;12.00;99.90
39919;DHT22;25589;51.552;13.424;2022-09-19T08:26:23;11.50;99.90
39919;DHT22;25589;51.552;13.424;2022-09-19T08:28:51;11.50;99.90
39919;DHT22;25589;51.552;13.424;2022-09-19T08:31:18;11.60;99.90
39919;DHT22;25589;51.552;13.424;2022-09-19T08:33:47;10.90;99.90
39919;DHT22;25589;51.552;13.424;2022-09-19T08:36:13;11.70;99.90
39919;DHT22;25589;51.552;13.424;2022-09-19T08:38:40;12.30;99.90
39919;DHT22;25589;51.552;13.424;2022-09-19T08:41:33;11.60;99.90
39919;DHT22;25589;51.552;13.424;2022-09-19T08:44:13;11.90;99.90
39919;DHT22;25589;51.552;13.424;2022-09-19T08:46:44;11.30;99.90
39919;DHT22;25589;51.552;13.424;2022-09-19T08:52:16;11.70;99.90
39919;DHT22;25589;51.552;13.424;2022-09-19T08:54:49;11.70;99.90
39919;DHT22;25589;51.552;13.424;2022-09-19T08:57:29;11.80;99.90
39919;DHT22;25589;51.552;13.424;2022-09-19T09:00:04;11.90;99.90
39919;DHT22;25589;51.552;13.424;2022-09-19T09:02:54;11.80;99.90
39919;DHT22;25589;51.552;13.424;2022-09-19T09:05:47;12.00;99.90
39919;DHT22;25589;51.552;13.424;2022-09-19T09:14:36;12.10;99.90
39919;DHT22;25589;51.552;13.424;2022-09-19T09:20:40;12.20;99.90
39919;DHT22;25589;51.552;13.424;2022-09-19T09:26:22;12.20;99.90
39919;DHT22;25589;51.552;13.424;2022-09-19T09:31:52;12.20;99.90
39919;DHT22;25589;51.552;13.424;2022-09-19T09:37:20;11.50;99.90
39919;DHT22;25589;51.552;13.424;2022-09-19T09:43:05;12.30;99.90
39919;DHT22;25589;51.552;13.424;2022-09-19T09:45:44;12.30;99.90
39919;DHT22;25589;51.552;13.424;2022-09-19T09:48:24;12.30;99.90
39919;DHT22;25589;51.552;13.424;2022-09-19T09:54:09;12.20;99.90
39919;DHT22;25589;51.552;13.424;2022-09-19T09:57:12;13.40;99.90
39919;DHT22;25589;51.552;13.424;2022-09-19T10:00:00;13.00;99.90
39919;DHT22;25589;51.552;13.424;2022-09-19T10:03:07;12.90;99.90
39919;DHT22;25589;51.552;13.424;2022-09-19T10:06:00;13.90;99.90
39919;DHT22;25589;51.552;13.424;2022-09-19T10:08:36;13.10;99.90
39919;DHT22;25589;51.552;13.424;2022-09-19T10:11:43;13.20;99.90
39919;DHT22;25589;51.552;13.424;2022-09-19T10:14:25;13.40;99.90
39919;DHT22;25589;51.552;13.424;2022-09-19T10:17:01;13.10;99.90
39919;DHT22;25589;51.552;13.424;2022-09-19T10:19:42;13.20;99.90
39919;DHT22;25589;51.552;13.424;2022-09-19T10:22:12;13.30;99.90
39919;DHT22;25589;51.552;13.424;2022-09-19T10:24:47;13.40;99.90
39919;DHT22;25589;51.552;13.424;2022-09-19T10:27:46;13.50;99.90
39919;DHT22;25589;51.552;13.424;2022-09-19T10:30:36;13.50;99.90
39919;DHT22;25589;51.552;13.424;2022-09-19T10:36:03;13.70;99.90
39919;DHT22;25589;51.552;13.424;2022-09-19T10:38:45;13.70;99.90
39919;DHT22;25589;51.552;13.424;2022-09-19T10:41:12;13.80;99.90
39919;DHT22;25589;51.552;13.424;2022-09-19T10:43:48;14.00;99.90
39919;DHT22;25589;51.552;13.424;2022-09-19T10:46:23;14.00;99.90
39919;DHT22;25589;51.552;13.424;2022-09-19T10:49:18;14.00;99.90
39919;DHT22;25589;51.552;13.424;2022-09-19T10:51:46;14.00;99.90
39919;DHT22;25589;51.552;13.424;2022-09-19T10:54:30;14.20;99.90
39919;DHT22;25589;51.552;13.424;2022-09-19T10:56:58;14.20;99.90
39919;DHT22;25589;51.552;13.424;2022-09-19T10:59:36;13.80;99.90
39919;DHT22;25589;51.552;13.424;2022-09-19T11:02:18;14.40;99.90
39919;DHT22;25589;51.552;13.424;2022-09-19T11:04:54;14.00;99.90
39919;DHT22;25589;51.552;13.424;2022-09-19T11:07:23;14.60;99.90
39919;DHT22;25589;51.552;13.424;2022-09-19T11:09:52;14.80;99.90
39919;DHT22;25589;51.552;13.424;2022-09-19T11:12:27;15.00;99.90
39919;DHT22;25589;51.552;13.424;2022-09-19T11:14:55;14.90;99.90
39919;DHT22;25589;51.552;13.424;2022-09-19T11:17:54;15.20;99.90
39919;DHT22;25589;51.552;13.424;2022-09-19T11:20:55;15.00;99.90
39919;DHT22;25589;51.552;13.424;2022-09-19T11:23:47;15.10;99.90
39919;DHT22;25589;51.552;13.424;2022-09-19T11:26:29;15.70;99.90
39919;DHT22;25589;51.552;13.424;2022-09-19T11:29:19;15.40;99.90
39919;DHT22;25589;51.552;13.424;2022-09-19T11:34:44;15.50;99.90
39919;DHT22;25589;51.552;13.424;2022-09-19T11:46:04;15.60;99.90
39919;DHT22;25589;51.552;13.424;2022-09-19T11:48:54;15.70;99.90
39919;DHT22;25589;51.552;13.424;2022-09-19T11:51:32;15.80;99.90
39919;DHT22;25589;51.552;13.424;2022-09-19T11:54:28;16.10;99.90
39919;DHT22;25589;51.552;13.424;2022-09-19T11:59:47;16.50;99.90
39919;DHT22;25589;51.552;13.424;2022-09-19T12:02:34;16.70;99.90
39919;DHT22;25589;51.552;13.424;2022-09-19T12:10:36;16.50;99.90
39919;DHT22;25589;51.552;13.424;2022-09-19T12:13:54;16.80;99.90
39919;DHT22;25589;51.552;13.424;2022-09-19T12:16:05;17.10;99.90
39919;DHT22;25589;51.552;13.424;2022-09-19T12:18:43;17.20;99.90
39919;DHT22;25589;51.552;13.424;2022-09-19T12:21:11;17.20;99.90
39919;DHT22;25589;51.552;13.424;2022-09-19T12:23:44;17.50;99.90
39919;DHT22;25589;51.552;13.424;2022-09-19T12:26:55;17.20;99.90
39919;DHT22;25589;51.552;13.424;2022-09-19T12:29:34;17.20;99.90
39919;DHT22;25589;51.552;13.424;2022-09-19T12:32:12;17.20;99.90
39919;DHT22;25589;51.552;13.424;2022-09-19T12:34:47;17.30;99.90
39919;DHT22;25589;51.552;13.424;2022-09-19T12:37:51;17.30;99.90
39919;DHT22;25589;51.552;13.424;2022-09-19T12:43:20;17.90;99.90
39919;DHT22;25589;51.552;13.424;2022-09-19T12:46:13;18.10;99.90
39919;DHT22;25589;51.552;13.424;2022-09-19T12:48:49;17.40;99.90
39919;DHT22;25589;51.552;13.424;2022-09-19T12:51:48;17.50;99.90
39919;DHT22;25589;51.552;13.424;2022-09-19T12:54:19;18.10;99.90
39919;DHT22;25589;51.552;13.424;2022-09-19T12:57:11;18.00;99.90
39919;DHT22;25589;51.552;13.424;2022-09-19T12:59:45;17.90;99.90
39919;DHT22;25589;51.552;13.424;2022-09-19T13:05:23;17.90;99.90
39919;DHT22;25589;51.552;13.424;2022-09-19T13:08:24;17.90;99.90
39919;DHT22;25589;51.552;13.424;2022-09-19T13:11:09;17.60;99.90
39919;DHT22;25589;51.552;13.424;2022-09-19T13:13:43;17.50;99.90
39919;DHT22;25589;51.552;13.424;2022-09-19T13:16:14;17.80;99.90
39919;DHT22;25589;51.552;13.424;2022-09-19T13:18:47;17.80;99.90
39919;DHT22;25589;51.552;13.424;2022-09-19T13:21:37;17.80;99.90
39919;DHT22;25589;51.552;13.424;2022-09-19T13:25:11;17.80;99.90
39919;DHT22;25589;51.552;13.424;2022-09-19T13:27:14;18.10;99.90
39919;DHT22;25589;51.552;13.424;2022-09-19T13:35:16;18.10;99.90
39919;DHT22;25589;51.552;13.424;2022-09-19T13:37:59;18.00;99.90
39919;DHT22;25589;51.552;13.424;2022-09-19T13:40:53;18.00;99.90
39919;DHT22;25589;51.552;13.424;2022-09-19T13:43:27;18.10;99.90
39919;DHT22;25589;51.552;13.424;2022-09-19T13:46:04;18.30;99.90
39919;DHT22;25589;51.552;13.424;2022-09-19T13:48:52;18.20;99.90
39919;DHT22;25589;51.552;13.424;2022-09-19T13:51:35;18.00;99.90
39919;DHT22;25589;51.552;13.424;2022-09-19T13:54:32;17.70;99.90
39919;DHT22;25589;51.552;13.424;2022-09-19T14:04:44;18.50;99.90
39919;DHT22;25589;51.552;13.424;2022-09-19T14:10:17;18.50;99.90
39919;DHT22;25589;51.552;13.424;2022-09-19T14:20:55;18.30;99.90
39919;DHT22;25589;51.552;13.424;2022-09-19T14:23:42;18.40;99.90
39919;DHT22;25589;51.552;13.424;2022-09-19T14:35:02;18.80;99.90
39919;DHT22;25589;51.552;13.424;2022-09-19T14:37:39;19.20;99.90
39919;DHT22;25589;51.552;13.424;2022-09-19T14:46:23;19.90;99.90
39919;DHT22;25589;51.552;13.424;2022-09-19T14:49:18;20.00;99.90
39919;DHT22;25589;51.552;13.424;2022-09-19T14:51:58;20.20;99.90
39919;DHT22;25589;51.552;13.424;2022-09-19T14:54:37;20.40;99.10
39919;DHT22;25589;51.552;13.424;2022-09-19T14:57:10;20.70;99.40
39919;DHT22;25589;51.552;13.424;2022-09-19T14:59:39;20.40;98.20
39919;DHT22;25589;51.552;13.424;2022-09-19T15:05:01;20.20;99.80
39919;DHT22;25589;51.552;13.424;2022-09-19T15:07:30;20.20;99.90
39919;DHT22;25589;51.552;13.424;2022-09-19T15:09:56;20.30;99.90
39919;DHT22;25589;51.552;13.424;2022-09-19T15:12:22;19.40;99.90
39919;DHT22;25589;51.552;13.424;2022-09-19T15:14:51;18.90;99.90
39919;DHT22;25589;51.552;13.424;2022-09-19T15:17:19;18.20;99.90
39919;DHT22;25589;51.552;13.424;2022-09-19T15:22:34;17.30;99.90
39919;DHT22;25589;51.552;13.424;2022-09-19T15:25:04;17.20;99.90
39919;DHT22;25589;51.552;13.424;2022-09-19T15:27:33;16.80;99.90
39919;DHT22;25589;51.552;13.424;2022-09-19T15:30:18;16.70;99.90
39919;DHT22;25589;51.552;13.424;2022-09-19T15:32:55;16.40;99.90
39919;DHT22;25589;51.552;13.424;2022-09-19T15:35:21;16.40;99.90
39919;DHT22;25589;51.552;13.424;2022-09-19T15:37:49;16.20;99.90
39919;DHT22;25589;51.552;13.424;2022-09-19T15:40:21;15.80;99.90
39919;DHT22;25589;51.552;13.424;2022-09-19T15:42:48;16.20;99.90
39919;DHT22;25589;51.552;13.424;2022-09-19T15:48:13;16.50;99.90
39919;DHT22;25589;51.552;13.424;2022-09-19T15:50:44;16.40;99.90
39919;DHT22;25589;51.552;13.424;2022-09-19T15:53:18;16.40;99.90
39919;DHT22;25589;51.552;13.424;2022-09-19T15:55:55;16.50;99.90
39919;DHT22;25589;51.552;13.424;2022-09-19T15:58:27;16.20;99.90
39919;DHT22;25589;51.552;13.424;2022-09-19T16:00:54;16.30;99.90
39919;DHT22;25589;51.552;13.424;2022-09-19T16:03:22;16.10;99.90
39919;DHT22;25589;51.552;13.424;2022-09-19T16:06:07;16.00;99.90
39919;DHT22;25589;51.552;13.424;2022-09-19T16:09:04;15.90;99.90
39919;DHT22;25589;51.552;13.424;2022-09-19T16:11:40;15.60;99.90
39919;DHT22;25589;51.552;13.424;2022-09-19T16:14:27;15.50;99.90
39919;DHT22;25589;51.552;13.424;2022-09-19T16:16:54;15.40;99.90
39919;DHT22;25589;51.552;13.424;2022-09-19T16:22:00;14.70;99.90
39919;DHT22;25589;51.552;13.424;2022-09-19T16:24:28;14.80;99.90
39919;DHT22;25589;51.552;13.424;2022-09-19T16:26:57;14.60;99.90
39919;DHT22;25589;51.552;13.424;2022-09-19T16:29:27;14.60;99.90
39919;DHT22;25589;51.552;13.424;2022-09-19T16:31:54;14.70;99.90
39919;DHT22;25589;51.552;13.424;2022-09-19T16:34:34;14.80;99.90
39919;DHT22;25589;51.552;13.424;2022-09-19T16:37:02;14.90;99.90
39919;DHT22;25589;51.552;13.424;2022-09-19T16:44:42;14.70;99.90
39919;DHT22;25589;51.552;13.424;2022-09-19T16:49:45;15.30;99.90
39919;DHT22;25589;51.552;13.424;2022-09-19T16:52:22;14.40;99.90
39919;DHT22;25589;51.552;13.424;2022-09-19T16:54:49;14.80;99.90
39919;DHT22;25589;51.552;13.424;2022-09-19T16:57:16;14.80;99.90
39919;DHT22;25589;51.552;13.424;2022-09-19T16:59:45;14.60;99.90
39919;DHT22;25589;51.552;13.424;2022-09-19T17:02:24;14.60;99.90
39919;DHT22;25589;51.552;13.424;2022-09-19T17:04:51;14.50;99.90
39919;DHT22;25589;51.552;13.424;2022-09-19T17:07:17;14.30;99.90
39919;DHT22;25589;51.552;13.424;2022-09-19T17:09:45;14.20;99.90
39919;DHT22;25589;51.552;13.424;2022-09-19T17:12:13;14.10;99.90
39919;DHT22;25589;51.552;13.424;2022-09-19T17:14:39;14.00;99.90
39919;DHT22;25589;51.552;13.424;2022-09-19T17:17:04;13.90;99.90
39919;DHT22;25589;51.552;13.424;2022-09-19T17:19:30;13.70;99.90
39919;DHT22;25589;51.552;13.424;2022-09-19T17:21:55;13.70;99.90
39919;DHT22;25589;51.552;13.424;2022-09-19T17:24:21;13.00;99.90
39919;DHT22;25589;51.552;13.424;2022-09-19T17:26:47;13.40;99.90
39919;DHT22;25589;51.552;13.424;2022-09-19T17:29:13;13.10;99.90
39919;DHT22;25589;51.552;13.424;2022-09-19T17:31:38;13.20;99.90
39919;DHT22;25589;51.552;13.424;2022-09-19T17:34:07;13.30;99.90
39919;DHT22;25589;51.552;13.424;2022-09-19T17:36:34;13.20;99.90
39919;DHT22;25589;51.552;13.424;2022-09-19T17:38:59;13.10;99.90
39919;DHT22;25589;51.552;13.424;2022-09-19T17:41:25;13.20;99.90
39919;DHT22;25589;51.552;13.424;2022-09-19T17:43:53;12.90;99.90
39919;DHT22;25589;51.552;13.424;2022-09-19T17:46:19;12.80;99.90
39919;DHT22;25589;51.552;13.424;2022-09-19T17:51:15;12.70;99.90
39919;DHT22;25589;51.552;13.424;2022-09-19T17:53:42;13.20;99.90
39919;DHT22;25589;51.552;13.424;2022-09-19T17:56:15;12.80;99.90
39919;DHT22;25589;51.552;13.424;2022-09-19T17:58:41;12.50;99.90
39919;DHT22;25589;51.552;13.424;2022-09-19T18:01:07;12.40;99.90
39919;DHT22;25589;51.552;13.424;2022-09-19T18:03:52;11.80;99.90
39919;DHT22;25589;51.552;13.424;2022-09-19T18:06:19;12.40;99.90
39919;DHT22;25589;51.552;13.424;2022-09-19T18:08:45;12.40;99.90
39919;DHT22;25589;51.552;13.424;2022-09-19T18:11:10;12.00;99.90
39919;DHT22;25589;51.552;13.424;2022-09-19T18:13:36;12.00;99.90
39919;DHT22;25589;51.552;13.424;2022-09-19T18:16:10;12.50;99.90
39919;DHT22;25589;51.552;13.424;2022-09-19T18:18:37;12.40;99.90
39919;DHT22;25589;51.552;13.424;2022-09-19T18:21:05;12.60;99.90
39919;DHT22;25589;51.552;13.424;2022-09-19T18:23:34;12.60;99.90
39919;DHT22;25589;51.552;13.424;2022-09-19T18:26:01;12.60;99.90
39919;DHT22;25589;51.552;13.424;2022-09-19T18:28:29;12.60;99.90
39919;DHT22;25589;51.552;13.424;2022-09-19T18:30:55;12.70;99.90
39919;DHT22;25589;51.552;13.424;2022-09-19T18:33:22;12.70;99.90
39919;DHT22;25589;51.552;13.424;2022-09-19T18:35:49;12.80;99.90
39919;DHT22;25589;51.552;13.424;2022-09-19T18:38:15;13.00;99.90
39919;DHT22;25589;51.552;13.424;2022-09-19T18:40:41;12.90;99.90
39919;DHT22;25589;51.552;13.424;2022-09-19T18:43:07;12.90;99.90
39919;DHT22;25589;51.552;13.424;2022-09-19T18:45:33;13.30;99.90